Time;durP1;ratioP1;P1;durP2;ratioP2;P2;SDS_P1;SDS_P2;PMS_P1;PMS_P2;Temp;Humidity;BMP_temperature;BMP_pressure;BME280_temperature;BME280_humidity;BME280_pressure;Samples;Min_cycle;Max_cycle;Signal;HPM_P1;HPM_P2
2023/09/26 00:01:33;;;;;;;5.80;5.20;;;;;;;;;;6161759;23;20103;-76
2023/09/26 00:03:59;;;;;;;6.80;5.53;;;;;;;;;;6213591;23;20020;-76
2023/09/26 00:06:25;;;;;;;7.07;5.32;;;;;;;;;;6213691;23;20012;-78
2023/09/26 00:08:54;;;;;;;6.22;5.55;;;;;;;;;;6213622;23;20088;-75
2023/09/26 00:11:20;;;;;;;6.65;6.05;;;;;;;;;;6187012;23;20094;-75
2023/09/26 00:13:47;;;;;;;6.80;5.82;;;;;;;;;;6186923;23;20024;-78
2023/09/26 00:16:13;;;;;;;7.95;5.72;;;;;;;;;;6187768;23;20016;-78
2023/09/26 00:18:40;;;;;;;10.50;6.15;;;;;;;;;;6213161;23;20070;-76
2023/09/26 00:21:08;;;;;;;6.38;5.78;;;;;;;;;;6187022;23;20058;-77
2023/09/26 00:23:35;;;;;;;8.77;6.38;;;;;;;;;;6162596;23;20099;-78
2023/09/26 00:26:01;;;;;;;6.70;6.03;;;;;;;;;;6186934;23;20080;-79
2023/09/26 00:28:27;;;;;;;6.85;6.22;;;;;;;;;;6186914;23;20044;-79
2023/09/26 00:30:56;;;;;;;6.70;6.10;;;;;;;;;;6188285;23;20044;-78
2023/09/26 00:33:22;;;;;;;6.70;6.10;;;;;;;;;;6215365;23;20030;-79
2023/09/26 00:35:48;;;;;;;7.20;6.57;;;;;;;;;;6164358;23;20015;-77
2023/09/26 00:38:14;;;;;;;8.13;7.07;;;;;;;;;;6217066;23;20016;-78
2023/09/26 00:40:41;;;;;;;6.88;6.25;;;;;;;;;;6218470;23;20008;-78
2023/09/26 00:43:07;;;;;;;10.90;7.05;;;;;;;;;;6192920;23;20106;-78
2023/09/26 00:45:35;;;;;;;7.20;6.50;;;;;;;;;;6191523;23;20424;-78
2023/09/26 00:48:01;;;;;;;8.80;7.30;;;;;;;;;;6167059;23;20013;-76
2023/09/26 00:50:29;;;;;;;8.15;7.18;;;;;;;;;;6216317;23;20015;-78
2023/09/26 00:52:55;;;;;;;10.45;7.18;;;;;;;;;;6188682;23;20027;-77
2023/09/26 00:55:24;;;;;;;8.20;7.10;;;;;;;;;;6164568;23;20004;-76
2023/09/26 00:57:50;;;;;;;8.30;7.55;;;;;;;;;;6165972;23;20017;-76
2023/09/26 01:00:18;;;;;;;13.43;8.98;;;;;;;;;;6190021;23;20070;-76
2023/09/26 01:02:44;;;;;;;10.95;9.07;;;;;;;;;;6189006;23;20048;-76
2023/09/26 01:05:10;;;;;;;10.20;9.10;;;;;;;;;;6216541;23;20012;-76
2023/09/26 01:07:37;;;;;;;11.20;9.55;;;;;;;;;;6189241;23;20039;-75
2023/09/26 01:10:07;;;;;;;8.30;7.65;;;;;;;;;;6188315;23;20537;-76
2023/09/26 01:12:33;;;;;;;6.32;5.50;;;;;;;;;;6187304;23;20016;-76
2023/09/26 01:14:59;;;;;;;10.23;8.55;;;;;;;;;;6162342;23;20008;-76
2023/09/26 01:17:28;;;;;;;19.98;13.68;;;;;;;;;;6161981;23;20491;-78
2023/09/26 01:19:54;;;;;;;16.85;15.27;;;;;;;;;;6138036;23;20013;-76
2023/09/26 01:22:20;;;;;;;19.33;16.33;;;;;;;;;;6213225;23;20026;-78
2023/09/26 01:24:47;;;;;;;23.73;19.20;;;;;;;;;;6186432;23;20039;-76
2023/09/26 01:27:13;;;;;;;28.80;22.35;;;;;;;;;;6186470;23;20119;-77
2023/09/26 01:29:39;;;;;;;26.75;21.48;;;;;;;;;;6186816;23;20117;-77
2023/09/26 01:32:05;;;;;;;27.40;22.73;;;;;;;;;;6212845;23;20020;-76
2023/09/26 01:34:31;;;;;;;24.42;21.92;;;;;;;;;;6186228;23;20036;-77
2023/09/26 01:36:57;;;;;;;23.65;20.92;;;;;;;;;;6212821;23;20083;-77
2023/09/26 01:39:23;;;;;;;28.17;23.48;;;;;;;;;;6212566;23;20078;-75
2023/09/26 01:41:49;;;;;;;18.58;14.63;;;;;;;;;;6186046;23;20088;-76
2023/09/26 01:44:15;;;;;;;11.40;10.25;;;;;;;;;;6213130;23;20047;-77
2023/09/26 01:46:41;;;;;;;13.00;11.27;;;;;;;;;;6185983;23;20009;-76
2023/09/26 01:49:08;;;;;;;14.43;10.52;;;;;;;;;;6212278;23;20016;-75
2023/09/26 01:51:34;;;;;;;14.75;11.35;;;;;;;;;;6186163;23;20480;-75
2023/09/26 01:54:01;;;;;;;14.27;12.88;;;;;;;;;;6186342;23;20019;-75
2023/09/26 01:56:27;;;;;;;13.57;12.35;;;;;;;;;;6212393;23;20012;-77
2023/09/26 01:58:53;;;;;;;18.15;16.25;;;;;;;;;;6212743;23;20129;-76
2023/09/26 02:01:19;;;;;;;13.88;12.45;;;;;;;;;;6161147;23;20012;-76
2023/09/26 02:03:45;;;;;;;23.70;18.63;;;;;;;;;;6187356;23;20350;-77
2023/09/26 02:06:11;;;;;;;26.95;22.27;;;;;;;;;;6189344;23;20020;-75
2023/09/26 02:08:37;;;;;;;21.02;17.00;;;;;;;;;;6164159;23;20031;-76
2023/09/26 02:11:03;;;;;;;20.38;18.23;;;;;;;;;;6189721;23;20078;-77
2023/09/26 02:13:29;;;;;;;31.15;22.85;;;;;;;;;;6163537;23;20020;-77
2023/09/26 02:15:56;;;;;;;39.10;26.42;;;;;;;;;;6192522;23;20009;-78
2023/09/26 02:18:24;;;;;;;40.97;25.85;;;;;;;;;;6216558;23;20017;-77
2023/09/26 02:20:50;;;;;;;41.15;26.10;;;;;;;;;;6189739;23;20013;-77
2023/09/26 02:23:16;;;;;;;30.70;23.13;;;;;;;;;;6190387;23;20024;-77
2023/09/26 02:25:49;;;;;;;26.65;22.20;;;;;;;;;;6186584;23;20008;-78
2023/09/26 02:28:15;;;;;;;31.60;23.70;;;;;;;;;;6185924;23;20031;-77
2023/09/26 02:30:41;;;;;;;29.92;24.58;;;;;;;;;;6187102;23;20053;-76
2023/09/26 02:33:07;;;;;;;31.63;22.98;;;;;;;;;;6192697;23;20025;-77
2023/09/26 02:35:33;;;;;;;28.45;21.42;;;;;;;;;;6220225;23;20092;-77
2023/09/26 02:37:59;;;;;;;32.25;23.38;;;;;;;;;;6197049;23;20009;-78
2023/09/26 02:40:25;;;;;;;30.45;22.25;;;;;;;;;;6212774;23;20051;-77
2023/09/26 02:42:51;;;;;;;26.35;20.08;;;;;;;;;;6212100;23;20017;-77
2023/09/26 02:45:18;;;;;;;23.75;18.73;;;;;;;;;;6212647;23;20062;-77
2023/09/26 02:47:44;;;;;;;21.10;18.40;;;;;;;;;;6211650;23;20017;-77
2023/09/26 02:50:10;;;;;;;29.70;21.52;;;;;;;;;;6186412;23;20016;-78
2023/09/26 02:52:36;;;;;;;29.10;21.10;;;;;;;;;;6185546;23;20012;-74
2023/09/26 02:55:02;;;;;;;28.67;22.77;;;;;;;;;;6211742;23;20016;-73
2023/09/26 02:57:31;;;;;;;35.10;21.90;;;;;;;;;;6159991;23;20123;-74
2023/09/26 02:59:57;;;;;;;25.40;20.20;;;;;;;;;;6185346;23;20075;-75
2023/09/26 03:02:23;;;;;;;27.02;18.88;;;;;;;;;;6185049;23;20020;-74
2023/09/26 03:04:49;;;;;;;28.50;21.90;;;;;;;;;;6211364;23;20339;-75
2023/09/26 03:07:16;;;;;;;30.20;21.17;;;;;;;;;;6211608;23;20091;-73
2023/09/26 03:09:42;;;;;;;31.02;21.75;;;;;;;;;;6160230;23;20385;-75
2023/09/26 03:12:09;;;;;;;31.15;22.20;;;;;;;;;;6185008;23;20008;-72
2023/09/26 03:14:35;;;;;;;33.38;21.77;;;;;;;;;;6185316;23;20016;-73
2023/09/26 03:17:01;;;;;;;29.25;21.33;;;;;;;;;;6185175;23;20059;-74
2023/09/26 03:19:27;;;;;;;31.23;22.70;;;;;;;;;;6211654;23;20086;-74
2023/09/26 03:21:53;;;;;;;27.77;20.00;;;;;;;;;;6184823;23;20016;-73
2023/09/26 03:24:19;;;;;;;19.20;16.58;;;;;;;;;;6212231;23;20024;-73
2023/09/26 03:26:45;;;;;;;23.58;16.85;;;;;;;;;;6213284;23;20453;-75
2023/09/26 03:29:13;;;;;;;24.20;17.38;;;;;;;;;;6162039;23;20112;-73
2023/09/26 03:31:39;;;;;;;23.88;17.13;;;;;;;;;;6160427;23;20019;-73
2023/09/26 03:34:05;;;;;;;29.33;19.23;;;;;;;;;;6186725;23;20012;-74
2023/09/26 03:36:32;;;;;;;25.48;19.60;;;;;;;;;;6186192;23;20013;-74
2023/09/26 03:38:58;;;;;;;33.08;21.90;;;;;;;;;;6186494;23;20048;-74
2023/09/26 03:41:24;;;;;;;28.15;20.80;;;;;;;;;;6186667;23;20012;-75
2023/09/26 03:43:50;;;;;;;34.92;20.42;;;;;;;;;;6212639;23;20025;-74
2023/09/26 03:46:16;;;;;;;26.20;19.83;;;;;;;;;;6212826;23;20472;-74
2023/09/26 03:48:42;;;;;;;27.02;17.90;;;;;;;;;;6212588;23;20016;-75
2023/09/26 03:51:14;;;;;;;23.95;17.20;;;;;;;;;;6186137;23;20016;-74
2023/09/26 03:53:41;;;;;;;23.80;16.35;;;;;;;;;;6185976;23;20043;-73
2023/09/26 03:56:07;;;;;;;22.13;17.08;;;;;;;;;;6187598;23;20012;-73
2023/09/26 03:58:33;;;;;;;21.95;17.20;;;;;;;;;;6211965;23;20013;-74
2023/09/26 04:01:15;;;;;;;21.30;14.38;;;;;;;;;;6212792;23;20038;-73
2023/09/26 04:03:42;;;;;;;14.98;12.98;;;;;;;;;;6212325;23;20424;-74
2023/09/26 04:06:09;;;;;;;14.05;10.75;;;;;;;;;;6212479;23;20468;-74
2023/09/26 04:08:35;;;;;;;11.80;9.10;;;;;;;;;;6186241;23;20016;-74
2023/09/26 04:11:01;;;;;;;9.52;8.68;;;;;;;;;;6162018;23;20445;-73
2023/09/26 04:13:27;;;;;;;9.07;8.18;;;;;;;;;;6160766;23;20107;-73
2023/09/26 04:15:53;;;;;;;10.45;8.68;;;;;;;;;;6212102;23;20036;-74
2023/09/26 04:18:22;;;;;;;9.23;8.32;;;;;;;;;;6184730;23;20099;-74
2023/09/26 04:20:51;;;;;;;12.77;8.77;;;;;;;;;;6211930;23;20017;-74
2023/09/26 04:23:18;;;;;;;9.43;8.52;;;;;;;;;;6186002;23;20025;-74
2023/09/26 04:25:44;;;;;;;8.75;7.85;;;;;;;;;;6186063;23;20062;-75
2023/09/26 04:28:10;;;;;;;12.90;8.23;;;;;;;;;;6211842;23;20095;-73
2023/09/26 04:30:39;;;;;;;13.93;7.65;;;;;;;;;;6212449;23;20036;-73
2023/09/26 04:33:07;;;;;;;9.53;8.33;;;;;;;;;;6184687;23;20028;-74
2023/09/26 04:35:33;;;;;;;9.93;5.97;;;;;;;;;;6185519;23;20472;-74
2023/09/26 04:37:59;;;;;;;7.50;6.90;;;;;;;;;;6186059;23;20364;-74
2023/09/26 04:40:25;;;;;;;6.95;6.45;;;;;;;;;;6137425;23;20043;-74
2023/09/26 04:42:52;;;;;;;9.20;8.25;;;;;;;;;;6212338;23;20021;-74
2023/09/26 04:45:18;;;;;;;8.18;7.57;;;;;;;;;;6212549;23;20099;-73
2023/09/26 04:47:44;;;;;;;8.93;8.23;;;;;;;;;;6185721;23;20048;-72
2023/09/26 04:50:10;;;;;;;8.63;7.93;;;;;;;;;;6213067;23;20023;-74
2023/09/26 04:52:36;;;;;;;8.48;7.88;;;;;;;;;;6212475;23;20083;-74
2023/09/26 04:55:02;;;;;;;8.77;8.07;;;;;;;;;;6185779;23;20013;-75
2023/09/26 04:57:30;;;;;;;9.73;8.93;;;;;;;;;;6161674;23;20519;-75
2023/09/26 04:59:56;;;;;;;9.23;8.40;;;;;;;;;;6212668;23;20008;-74
2023/09/26 05:02:22;;;;;;;9.27;8.55;;;;;;;;;;6163040;23;20012;-73
2023/09/26 05:04:48;;;;;;;12.00;8.38;;;;;;;;;;6185566;23;20354;-75
2023/09/26 05:07:15;;;;;;;9.60;8.70;;;;;;;;;;6186231;23;20019;-74
2023/09/26 05:09:41;;;;;;;9.02;8.27;;;;;;;;;;6186034;23;20020;-74
2023/09/26 05:12:06;;;;;;;9.45;8.52;;;;;;;;;;6212902;23;20062;-75
2023/09/26 05:14:32;;;;;;;9.52;8.77;;;;;;;;;;6161435;23;20012;-74
2023/09/26 05:16:58;;;;;;;11.50;9.48;;;;;;;;;;6212443;23;20013;-74
2023/09/26 05:19:24;;;;;;;9.77;9.05;;;;;;;;;;6185898;23;20099;-75
2023/09/26 05:21:51;;;;;;;9.73;8.93;;;;;;;;;;6212414;23;20044;-74
2023/09/26 05:24:17;;;;;;;12.70;11.60;;;;;;;;;;6161021;23;20025;-75
2023/09/26 05:26:43;;;;;;;13.55;12.35;;;;;;;;;;6212362;23;20168;-74
2023/09/26 05:29:09;;;;;;;13.77;11.15;;;;;;;;;;6212187;23;20016;-74
2023/09/26 05:31:36;;;;;;;15.45;11.48;;;;;;;;;;6212058;23;20012;-76
2023/09/26 05:34:03;;;;;;;13.52;12.35;;;;;;;;;;6185627;23;20028;-74
2023/09/26 05:36:31;;;;;;;13.95;12.57;;;;;;;;;;6212884;23;20016;-74
2023/09/26 05:38:57;;;;;;;13.45;12.05;;;;;;;;;;6185681;23;20012;-74
2023/09/26 05:41:23;;;;;;;12.10;11.00;;;;;;;;;;6212019;23;20035;-74
2023/09/26 05:43:50;;;;;;;16.10;10.65;;;;;;;;;;6185300;23;20020;-75
2023/09/26 05:46:16;;;;;;;11.05;10.15;;;;;;;;;;6208769;23;20476;-73
2023/09/26 05:48:42;;;;;;;10.82;9.13;;;;;;;;;;6182504;23;20016;-74
2023/09/26 05:51:08;;;;;;;11.07;9.25;;;;;;;;;;6210622;23;20013;-74
2023/09/26 05:53:35;;;;;;;12.88;9.63;;;;;;;;;;6184611;23;20016;-74
2023/09/26 05:56:01;;;;;;;9.93;9.00;;;;;;;;;;6184515;23;20008;-74
2023/09/26 05:58:27;;;;;;;10.48;8.70;;;;;;;;;;6185476;23;20063;-73
2023/09/26 06:00:54;;;;;;;11.00;8.07;;;;;;;;;;6212738;23;20016;-73
2023/09/26 06:03:19;;;;;;;9.45;8.45;;;;;;;;;;6215560;23;20024;-73
2023/09/26 06:05:46;;;;;;;10.23;8.52;;;;;;;;;;6189350;23;20110;-74
2023/09/26 06:08:12;;;;;;;9.23;8.38;;;;;;;;;;6212724;23;20013;-72
2023/09/26 06:10:39;;;;;;;9.98;8.73;;;;;;;;;;6159861;23;20103;-74
2023/09/26 06:13:05;;;;;;;8.65;7.85;;;;;;;;;;6184953;23;20107;-74
2023/09/26 06:15:31;;;;;;;8.23;7.50;;;;;;;;;;6211394;23;20012;-73
2023/09/26 06:17:59;;;;;;;9.32;8.45;;;;;;;;;;6210665;23;20086;-72
2023/09/26 06:20:29;;;;;;;9.18;8.20;;;;;;;;;;6185055;23;20437;-73
2023/09/26 06:22:55;;;;;;;9.50;8.38;;;;;;;;;;6134711;23;20017;-74
2023/09/26 06:25:24;;;;;;;8.05;7.30;;;;;;;;;;6135015;23;20055;-74
2023/09/26 06:27:51;;;;;;;10.93;6.20;;;;;;;;;;6210513;23;20059;-73
2023/09/26 06:30:17;;;;;;;9.18;7.00;;;;;;;;;;6210807;23;20016;-73
2023/09/26 06:32:44;;;;;;;7.80;7.20;;;;;;;;;;6210017;23;20128;-73
2023/09/26 06:35:10;;;;;;;7.85;6.82;;;;;;;;;;6158813;23;20350;-75
2023/09/26 06:37:36;;;;;;;7.25;6.55;;;;;;;;;;6183841;23;20013;-74
2023/09/26 06:40:05;;;;;;;8.30;7.15;;;;;;;;;;6210264;23;20009;-74
2023/09/26 06:42:33;;;;;;;10.68;6.80;;;;;;;;;;6210620;23;20045;-75
2023/09/26 06:45:00;;;;;;;7.50;6.82;;;;;;;;;;6210682;23;20017;-73
2023/09/26 06:47:26;;;;;;;10.20;7.50;;;;;;;;;;6210651;23;20048;-75
2023/09/26 06:49:53;;;;;;;8.80;7.05;;;;;;;;;;6210512;23;20022;-73
2023/09/26 06:52:22;;;;;;;10.85;7.22;;;;;;;;;;6210449;23;20450;-73
2023/09/26 06:54:48;;;;;;;10.32;7.57;;;;;;;;;;6183670;23;20012;-73
2023/09/26 06:57:17;;;;;;;16.90;8.52;;;;;;;;;;6183888;23;20050;-74
2023/09/26 06:59:52;;;;;;;12.85;8.32;;;;;;;;;;6211138;23;20119;-75
2023/09/26 07:02:21;;;;;;;11.82;10.07;;;;;;;;;;6162291;23;20039;-76
2023/09/26 07:04:52;;;;;;;12.77;10.55;;;;;;;;;;6186422;23;20450;-75
2023/09/26 07:07:18;;;;;;;17.02;10.43;;;;;;;;;;6186481;23;20016;-76
2023/09/26 07:09:44;;;;;;;10.93;9.93;;;;;;;;;;6211064;23;20088;-75
2023/09/26 07:12:10;;;;;;;14.65;9.73;;;;;;;;;;6210756;23;20019;-76
2023/09/26 07:14:37;;;;;;;11.95;10.25;;;;;;;;;;6184265;23;20012;-76
2023/09/26 07:17:03;;;;;;;10.38;8.65;;;;;;;;;;6210208;23;20093;-75
2023/09/26 07:19:32;;;;;;;12.32;8.45;;;;;;;;;;6184352;23;20399;-74
2023/09/26 07:21:59;;;;;;;12.35;8.10;;;;;;;;;;6210496;23;20447;-75
2023/09/26 07:24:25;;;;;;;13.13;7.80;;;;;;;;;;6210640;23;20635;-74
2023/09/26 07:26:51;;;;;;;15.77;7.88;;;;;;;;;;6135805;23;20019;-75
2023/09/26 07:29:17;;;;;;;12.80;6.47;;;;;;;;;;6185364;23;20017;-74
2023/09/26 07:31:44;;;;;;;10.32;6.13;;;;;;;;;;6160927;23;20094;-76
2023/09/26 07:34:10;;;;;;;8.90;5.80;;;;;;;;;;6161781;23;20023;-76
2023/09/26 07:36:36;;;;;;;7.28;5.15;;;;;;;;;;6185435;23;20039;-75
2023/09/26 07:39:03;;;;;;;5.55;5.05;;;;;;;;;;6212231;23;20016;-74
2023/09/26 07:41:30;;;;;;;6.65;5.32;;;;;;;;;;6213038;23;20012;-74
2023/09/26 07:43:58;;;;;;;4.78;4.35;;;;;;;;;;6212105;23;20024;-77
2023/09/26 07:46:25;;;;;;;38.25;31.00;;;;;;;;;;6161430;23;20016;-74
2023/09/26 07:48:52;;;;;;;13.35;5.32;;;;;;;;;;6185406;23;20019;-74
2023/09/26 07:51:18;;;;;;;3.70;3.40;;;;;;;;;;6185752;23;20032;-72
2023/09/26 07:53:44;;;;;;;4.15;2.72;;;;;;;;;;6211992;23;20024;-73
2023/09/26 07:56:10;;;;;;;3.33;2.92;;;;;;;;;;6212407;23;20023;-74
2023/09/26 07:58:37;;;;;;;4.72;2.60;;;;;;;;;;6211414;23;20012;-75
2023/09/26 08:01:07;;;;;;;4.55;3.20;;;;;;;;;;6135601;23;20024;-77
2023/09/26 08:03:34;;;;;;;4.78;3.47;;;;;;;;;;6211533;23;20074;-73
2023/09/26 08:06:00;;;;;;;4.75;3.55;;;;;;;;;;6184703;23;20066;-74
2023/09/26 08:08:26;;;;;;;2.85;2.65;;;;;;;;;;6212156;23;20048;-74
2023/09/26 08:10:52;;;;;;;4.75;2.20;;;;;;;;;;6185262;23;20012;-72
2023/09/26 08:13:18;;;;;;;3.15;2.20;;;;;;;;;;6212467;23;20027;-74
2023/09/26 08:15:44;;;;;;;3.50;2.42;;;;;;;;;;6160699;23;20013;-72
2023/09/26 08:18:10;;;;;;;2.90;2.70;;;;;;;;;;6185151;23;20452;-75
2023/09/26 08:20:36;;;;;;;2.33;2.22;;;;;;;;;;6211584;23;20008;-76
2023/09/26 08:23:02;;;;;;;3.33;3.00;;;;;;;;;;6211457;23;20473;-76
2023/09/26 08:25:28;;;;;;;3.20;2.90;;;;;;;;;;6212578;23;20017;-76
2023/09/26 08:27:55;;;;;;;12.48;3.20;;;;;;;;;;6183178;23;20026;-76
2023/09/26 08:30:21;;;;;;;2.90;2.70;;;;;;;;;;6160751;23;20015;-76
2023/09/26 08:32:47;;;;;;;4.28;2.60;;;;;;;;;;6211182;23;20101;-75
2023/09/26 08:35:13;;;;;;;3.72;2.83;;;;;;;;;;6185187;23;20456;-74
2023/09/26 08:37:40;;;;;;;5.20;2.80;;;;;;;;;;6212038;23;20063;-75
2023/09/26 08:40:08;;;;;;;3.97;2.95;;;;;;;;;;6184932;23;20012;-75
2023/09/26 08:42:37;;;;;;;5.22;2.85;;;;;;;;;;6184405;23;20365;-75
2023/09/26 08:45:03;;;;;;;4.13;3.08;;;;;;;;;;6210871;23;20103;-75
2023/09/26 08:47:33;;;;;;;9.00;2.92;;;;;;;;;;6184331;23;20032;-74
2023/09/26 08:49:59;;;;;;;6.45;3.25;;;;;;;;;;6183254;23;20013;-73
2023/09/26 08:52:25;;;;;;;3.35;3.05;;;;;;;;;;6159646;23;20405;-74
2023/09/26 08:54:51;;;;;;;5.20;2.80;;;;;;;;;;6183372;23;20043;-72
2023/09/26 08:57:18;;;;;;;3.03;2.72;;;;;;;;;;6159553;23;20019;-74
2023/09/26 08:59:47;;;;;;;5.40;2.38;;;;;;;;;;6210208;23;20461;-73
2023/09/26 09:02:13;;;;;;;11.00;3.03;;;;;;;;;;6211350;23;20016;-74
2023/09/26 09:04:42;;;;;;;2.67;2.47;;;;;;;;;;6211992;23;20024;-74
2023/09/26 09:07:09;;;;;;;3.60;2.60;;;;;;;;;;6211139;23;20059;-72
2023/09/26 09:09:35;;;;;;;2.78;2.58;;;;;;;;;;6212247;23;20038;-72
2023/09/26 09:12:01;;;;;;;3.50;2.58;;;;;;;;;;6211987;23;20517;-72
2023/09/26 09:14:32;;;;;;;3.10;2.60;;;;;;;;;;6212637;23;20499;-74
2023/09/26 09:16:58;;;;;;;;;;;;;;;;;;6187426;23;20071;-72
2023/09/26 09:19:43;;;;;;;3.08;2.70;;;;;;;;;;6187950;23;19915;-72
2023/09/26 09:22:18;;;;;;;2.85;2.35;;;;;;;;;;6214700;23;20400;-72
2023/09/26 09:24:51;;;;;;;4.32;3.00;;;;;;;;;;6212809;23;20063;-73
2023/09/26 09:27:18;;;;;;;4.22;2.20;;;;;;;;;;6162160;23;20016;-72
2023/09/26 09:29:44;;;;;;;3.85;2.67;;;;;;;;;;6185708;23;20024;-72
2023/09/26 09:32:10;;;;;;;3.00;2.78;;;;;;;;;;6185488;23;20020;-73
2023/09/26 09:34:36;;;;;;;5.55;2.55;;;;;;;;;;6212010;23;20040;-73
2023/09/26 09:37:02;;;;;;;2.35;2.25;;;;;;;;;;6211847;23;20032;-73
2023/09/26 09:39:28;;;;;;;2.80;2.60;;;;;;;;;;6212067;23;20021;-73
2023/09/26 09:41:56;;;;;;;2.80;2.58;;;;;;;;;;6211544;23;20100;-73
2023/09/26 09:44:23;;;;;;;2.80;2.60;;;;;;;;;;6185493;23;20028;-72
2023/09/26 09:46:49;;;;;;;2.80;2.60;;;;;;;;;;6211826;23;20023;-73
2023/09/26 09:49:15;;;;;;;4.55;2.40;;;;;;;;;;6212006;23;20028;-73
2023/09/26 09:51:42;;;;;;;3.03;2.60;;;;;;;;;;6211761;23;20458;-72
2023/09/26 09:54:10;;;;;;;5.55;2.45;;;;;;;;;;6184834;23;20012;-73
2023/09/26 09:56:36;;;;;;;3.10;2.88;;;;;;;;;;6212297;23;20016;-73
2023/09/26 09:59:05;;;;;;;4.28;2.60;;;;;;;;;;6185415;23;20009;-74
2023/09/26 10:01:33;;;;;;;3.47;2.58;;;;;;;;;;6185183;23;20100;-73
2023/09/26 10:03:59;;;;;;;2.72;2.47;;;;;;;;;;6184975;23;20078;-72
2023/09/26 10:06:25;;;;;;;24.15;15.70;;;;;;;;;;6185519;23;20020;-73
2023/09/26 10:08:53;;;;;;;3.80;2.85;;;;;;;;;;6211699;23;20009;-73
2023/09/26 10:11:19;;;;;;;5.93;3.90;;;;;;;;;;6212097;23;20013;-73
2023/09/26 10:13:46;;;;;;;4.53;2.88;;;;;;;;;;6160508;23;20086;-73
2023/09/26 10:16:14;;;;;;;2.55;2.35;;;;;;;;;;6212296;23;20453;-73
2023/09/26 10:18:41;;;;;;;3.08;2.80;;;;;;;;;;6185538;23;20473;-73
2023/09/26 10:21:23;;;;;;;5.53;2.67;;;;;;;;;;6185371;23;20453;-73
2023/09/26 10:24:04;;;;;;;2.90;2.70;;;;;;;;;;6211308;23;20024;-73
2023/09/26 10:26:30;;;;;;;6.38;2.50;;;;;;;;;;6212075;23;20012;-73
2023/09/26 10:29:06;;;;;;;3.20;2.90;;;;;;;;;;6211718;23;20062;-73
2023/09/26 10:31:33;;;;;;;3.65;3.33;;;;;;;;;;6160555;23;20013;-72
2023/09/26 10:33:59;;;;;;;2.88;2.67;;;;;;;;;;6211027;23;20094;-73
2023/09/26 10:36:25;;;;;;;5.10;2.63;;;;;;;;;;6185658;23;20023;-73
2023/09/26 10:39:01;;;;;;;6.68;2.85;;;;;;;;;;6211386;23;20008;-73
2023/09/26 10:41:27;;;;;;;4.95;2.92;;;;;;;;;;6212017;23;20023;-73
2023/09/26 10:43:53;;;;;;;8.65;3.08;;;;;;;;;;6160301;23;20020;-73
2023/09/26 10:46:20;;;;;;;5.05;2.47;;;;;;;;;;6185347;23;20036;-73
2023/09/26 10:48:45;;;;;;;3.92;2.60;;;;;;;;;;6185070;23;20098;-73
2023/09/26 10:51:11;;;;;;;3.22;2.85;;;;;;;;;;6184859;23;20462;-73
2023/09/26 10:53:37;;;;;;;4.22;2.90;;;;;;;;;;6184859;23;20104;-74
2023/09/26 10:56:03;;;;;;;3.40;2.70;;;;;;;;;;6185172;23;20050;-73
2023/09/26 10:58:32;;;;;;;5.28;2.78;;;;;;;;;;6159832;23;20024;-73
2023/09/26 11:00:58;;;;;;;3.55;2.50;;;;;;;;;;6184836;23;20009;-73
2023/09/26 11:03:24;;;;;;;4.15;3.10;;;;;;;;;;6211358;23;20063;-73
2023/09/26 11:05:50;;;;;;;5.32;3.13;;;;;;;;;;6184900;23;20055;-73
2023/09/26 11:08:17;;;;;;;4.35;2.85;;;;;;;;;;6185037;23;20012;-73
2023/09/26 11:10:47;;;;;;;5.05;2.70;;;;;;;;;;6185121;23;20095;-73
2023/09/26 11:13:13;;;;;;;7.80;2.92;;;;;;;;;;6184517;23;20016;-73
2023/09/26 11:15:39;;;;;;;5.55;2.88;;;;;;;;;;6212028;23;20480;-73
2023/09/26 11:18:09;;;;;;;3.55;2.60;;;;;;;;;;6160033;23;20008;-72
2023/09/26 11:20:37;;;;;;;7.13;3.03;;;;;;;;;;6211746;23;20022;-72
2023/09/26 11:23:03;;;;;;;3.15;2.70;;;;;;;;;;6185066;23;20067;-73
2023/09/26 11:25:30;;;;;;;7.20;3.15;;;;;;;;;;6212009;23;20030;-73
2023/09/26 11:27:56;;;;;;;2.47;2.38;;;;;;;;;;6159735;23;20498;-73
2023/09/26 11:30:22;;;;;;;34.85;23.73;;;;;;;;;;6159971;23;20021;-73
2023/09/26 11:32:51;;;;;;;11.43;4.88;;;;;;;;;;6184340;23;20032;-73
2023/09/26 11:35:17;;;;;;;6.93;3.55;;;;;;;;;;6211049;23;20012;-74
2023/09/26 11:37:43;;;;;;;5.53;2.90;;;;;;;;;;6211138;23;20017;-72
2023/09/26 11:40:13;;;;;;;3.13;2.83;;;;;;;;;;6184699;23;20016;-73
2023/09/26 11:42:44;;;;;;;3.83;2.90;;;;;;;;;;6185398;23;20063;-74
2023/09/26 11:45:18;;;;;;;3.95;3.22;;;;;;;;;;6185440;23;20016;-72
2023/09/26 11:47:45;;;;;;;4.93;2.97;;;;;;;;;;6214668;23;20012;-73
2023/09/26 11:50:11;;;;;;;2.85;2.65;;;;;;;;;;6186875;23;20345;-73
2023/09/26 11:52:37;;;;;;;3.65;3.28;;;;;;;;;;6213347;23;20079;-73
2023/09/26 11:55:03;;;;;;;4.45;3.25;;;;;;;;;;6212819;23;20016;-73
2023/09/26 11:57:33;;;;;;;4.53;3.08;;;;;;;;;;6186683;23;20095;-73
2023/09/26 11:59:59;;;;;;;3.47;3.10;;;;;;;;;;6161346;23;20017;-74
2023/09/26 12:02:26;;;;;;;5.13;3.50;;;;;;;;;;6161147;23;20047;-73
2023/09/26 12:04:52;;;;;;;3.63;3.28;;;;;;;;;;6212965;23;20013;-72
2023/09/26 12:07:18;;;;;;;4.38;3.15;;;;;;;;;;6212938;23;20008;-73
2023/09/26 12:09:44;;;;;;;4.03;3.63;;;;;;;;;;6212273;23;20016;-72
2023/09/26 12:12:10;;;;;;;4.57;3.05;;;;;;;;;;6212521;23;20042;-73
2023/09/26 12:14:36;;;;;;;8.63;3.70;;;;;;;;;;6212658;23;20030;-72
2023/09/26 12:17:04;;;;;;;5.85;3.58;;;;;;;;;;6186235;23;20013;-73
2023/09/26 12:19:30;;;;;;;4.55;3.47;;;;;;;;;;6213170;23;20015;-72
2023/09/26 12:21:56;;;;;;;5.00;3.53;;;;;;;;;;6186673;23;20017;-73
2023/09/26 12:24:22;;;;;;;4.50;2.88;;;;;;;;;;6213752;23;20024;-72
2023/09/26 12:26:48;;;;;;;7.95;3.50;;;;;;;;;;6191341;23;20401;-74
2023/09/26 12:29:14;;;;;;;6.60;3.13;;;;;;;;;;6216377;23;20381;-73
2023/09/26 12:31:43;;;;;;;4.55;3.90;;;;;;;;;;6214332;23;20346;-73
2023/09/26 12:34:10;;;;;;;3.63;3.13;;;;;;;;;;6212614;23;20094;-73
2023/09/26 12:36:36;;;;;;;4.30;3.00;;;;;;;;;;6213347;23;20015;-73
2023/09/26 12:39:02;;;;;;;3.17;2.88;;;;;;;;;;6186325;23;20409;-73
2023/09/26 12:41:28;;;;;;;4.20;3.55;;;;;;;;;;6212998;23;20020;-72
2023/09/26 12:43:54;;;;;;;3.67;3.05;;;;;;;;;;6186070;23;20035;-75
2023/09/26 12:46:21;;;;;;;3.75;2.97;;;;;;;;;;6161694;23;20023;-73
2023/09/26 12:48:47;;;;;;;5.53;3.03;;;;;;;;;;6212493;23;20339;-73
2023/09/26 12:51:13;;;;;;;4.20;2.80;;;;;;;;;;6185939;23;20009;-71
2023/09/26 12:53:39;;;;;;;4.05;3.00;;;;;;;;;;6212744;23;20119;-73
2023/09/26 12:56:05;;;;;;;4.38;2.85;;;;;;;;;;6212107;23;20013;-73
2023/09/26 12:58:31;;;;;;;5.63;2.75;;;;;;;;;;6161020;23;20147;-73
2023/09/26 13:00:57;;;;;;;6.63;3.40;;;;;;;;;;6212180;23;20013;-72
2023/09/26 13:03:23;;;;;;;3.90;3.15;;;;;;;;;;6212268;23;20048;-73
2023/09/26 13:05:49;;;;;;;6.57;3.63;;;;;;;;;;6185282;23;20095;-73
2023/09/26 13:08:17;;;;;;;4.43;3.38;;;;;;;;;;6185356;23;20402;-74
2023/09/26 13:10:43;;;;;;;4.47;3.20;;;;;;;;;;6160810;23;20067;-72
2023/09/26 13:13:09;;;;;;;5.82;3.70;;;;;;;;;;6211731;23;20026;-73
2023/09/26 13:15:35;;;;;;;3.95;3.17;;;;;;;;;;6185676;23;20017;-73
2023/09/26 13:18:02;;;;;;;8.15;3.75;;;;;;;;;;6185341;23;20020;-73
2023/09/26 13:20:28;;;;;;;5.63;2.90;;;;;;;;;;6185498;23;20022;-71
2023/09/26 13:22:54;;;;;;;9.02;4.00;;;;;;;;;;6185376;23;20016;-74
2023/09/26 13:25:20;;;;;;;4.72;4.22;;;;;;;;;;6211814;23;20027;-72
2023/09/26 13:27:45;;;;;;;4.20;3.65;;;;;;;;;;6160851;23;20016;-73
2023/09/26 13:30:11;;;;;;;4.95;3.97;;;;;;;;;;6185446;23;20106;-73
2023/09/26 13:32:37;;;;;;;3.65;3.30;;;;;;;;;;6186590;23;20422;-73
2023/09/26 13:35:04;;;;;;;3.97;3.60;;;;;;;;;;6211454;23;20012;-73
2023/09/26 13:37:31;;;;;;;4.20;3.70;;;;;;;;;;6212327;23;20023;-72
2023/09/26 13:39:57;;;;;;;6.88;3.85;;;;;;;;;;6211721;23;20012;-73
2023/09/26 13:42:23;;;;;;;3.40;3.10;;;;;;;;;;6212231;23;20516;-72
2023/09/26 13:44:51;;;;;;;5.60;3.80;;;;;;;;;;6185284;23;20465;-73
2023/09/26 13:47:18;;;;;;;3.72;3.17;;;;;;;;;;6211438;23;20144;-73
2023/09/26 13:49:43;;;;;;;3.75;3.45;;;;;;;;;;6211508;23;20038;-72
2023/09/26 13:52:09;;;;;;;8.43;3.70;;;;;;;;;;6211971;23;20445;-74
2023/09/26 13:54:36;;;;;;;7.43;3.10;;;;;;;;;;6185720;23;20083;-73
2023/09/26 13:57:02;;;;;;;4.88;3.30;;;;;;;;;;6160378;23;20028;-73
2023/09/26 13:59:28;;;;;;;3.17;2.97;;;;;;;;;;6185104;23;20039;-73
2023/09/26 14:01:54;;;;;;;4.93;3.33;;;;;;;;;;6211603;23;20449;-73
2023/09/26 14:04:20;;;;;;;6.78;4.72;;;;;;;;;;6211285;23;20024;-73
2023/09/26 14:06:46;;;;;;;4.10;3.45;;;;;;;;;;6185268;23;20023;-73
2023/09/26 14:09:12;;;;;;;3.53;3.22;;;;;;;;;;6184753;23;20464;-73
2023/09/26 14:11:38;;;;;;;5.00;3.50;;;;;;;;;;6211414;23;20016;-73
2023/09/26 14:14:04;;;;;;;3.58;2.83;;;;;;;;;;6211172;23;20901;-73
2023/09/26 14:16:30;;;;;;;5.18;3.00;;;;;;;;;;6160529;23;20012;-72
2023/09/26 14:18:56;;;;;;;3.35;2.95;;;;;;;;;;6135291;23;20012;-73
2023/09/26 14:21:23;;;;;;;8.45;3.45;;;;;;;;;;6184865;23;20034;-74
2023/09/26 14:23:49;;;;;;;10.40;3.92;;;;;;;;;;6159944;23;20499;-73
2023/09/26 14:26:15;;;;;;;12.27;3.90;;;;;;;;;;6211117;23;20036;-73
2023/09/26 14:28:41;;;;;;;5.30;3.13;;;;;;;;;;6211520;23;20008;-73
2023/09/26 14:31:08;;;;;;;3.67;2.90;;;;;;;;;;6184777;23;20019;-73
2023/09/26 14:33:34;;;;;;;6.85;3.35;;;;;;;;;;6211297;23;20046;-73